createdAt,value
2018-02-22T00:00:18.776Z,22.40
2018-02-22T00:02:46.290Z,24.00
2018-02-22T00:05:13.821Z,22.55
2018-02-22T00:07:41.333Z,22.33
2018-02-22T00:10:09.620Z,17.87
2018-02-22T00:12:37.916Z,23.05
2018-02-22T00:15:05.442Z,21.85
2018-02-22T00:17:32.966Z,21.80
2018-02-22T00:20:00.516Z,21.70
2018-02-22T00:22:28.025Z,23.60
2018-02-22T00:24:56.329Z,21.58
2018-02-22T00:27:23.842Z,23.67
2018-02-22T00:29:51.350Z,21.77
2018-02-22T00:32:18.872Z,21.27
2018-02-22T00:34:46.537Z,21.37
2018-02-22T00:37:14.077Z,24.45
2018-02-22T00:39:41.587Z,21.75
2018-02-22T00:42:09.093Z,22.95
2018-02-22T00:44:36.612Z,22.15
2018-02-22T00:47:04.126Z,22.85
2018-02-22T00:49:31.645Z,21.30
2018-02-22T00:51:59.173Z,21.80
2018-02-22T00:54:27.443Z,22.67
2018-02-22T00:56:54.952Z,21.95
2018-02-22T00:59:22.484Z,21.52
2018-02-22T01:01:49.996Z,20.73
2018-02-22T01:04:17.501Z,22.98
2018-02-22T01:06:45.048Z,23.02
2018-02-22T01:09:13.328Z,22.98
2018-02-22T01:11:41.612Z,23.25
2018-02-22T01:14:09.940Z,21.55
2018-02-22T01:16:37.450Z,22.02
2018-02-22T01:19:04.989Z,19.75
2018-02-22T01:21:33.289Z,22.37
2018-02-22T01:24:00.779Z,21.70
2018-02-22T01:26:28.301Z,22.48
2018-02-22T01:28:56.597Z,22.10
2018-02-22T01:31:24.104Z,22.13
2018-02-22T01:33:51.685Z,20.58
2018-02-22T01:36:20.027Z,22.35
2018-02-22T01:38:47.533Z,21.70
2018-02-22T01:41:15.828Z,22.02
2018-02-22T01:43:43.354Z,20.05
2018-02-22T01:46:10.865Z,21.73
2018-02-22T01:48:38.396Z,22.70
2018-02-22T01:51:06.668Z,20.48
2018-02-22T01:53:34.964Z,22.48
2018-02-22T01:56:02.473Z,23.05
2018-02-22T01:58:29.972Z,20.98
2018-02-22T02:00:58.267Z,20.42
2018-02-22T02:03:25.769Z,21.30
2018-02-22T02:05:53.292Z,20.75
2018-02-22T02:08:20.801Z,20.95
2018-02-22T02:10:48.309Z,21.75
2018-02-22T02:13:15.830Z,20.17
2018-02-22T02:15:44.105Z,21.90
2018-02-22T02:18:12.066Z,21.92
2018-02-22T02:20:39.586Z,20.30
2018-02-22T02:23:07.098Z,21.70
2018-02-22T02:25:35.403Z,19.77
2018-02-22T02:28:07.724Z,21.80
2018-02-22T02:30:35.261Z,20.58
2018-02-22T02:33:02.776Z,20.90
2018-02-22T02:35:30.307Z,19.50
2018-02-22T02:37:57.833Z,21.80
2018-02-22T02:40:25.342Z,20.90
2018-02-22T02:42:53.641Z,20.77
2018-02-22T02:45:21.148Z,20.83
2018-02-22T02:47:48.656Z,20.95
2018-02-22T02:50:16.948Z,19.80
2018-02-22T02:52:44.483Z,21.05
2018-02-22T02:55:13.035Z,18.10
2018-02-22T02:57:41.041Z,20.90
2018-02-22T03:00:09.309Z,19.05
2018-02-22T03:02:38.309Z,20.08
2018-02-22T03:05:06.592Z,20.90
2018-02-22T03:07:34.889Z,20.27
2018-02-22T03:10:02.397Z,18.70
2018-02-22T03:12:29.908Z,19.00
2018-02-22T03:14:57.449Z,18.50
2018-02-22T03:17:25.763Z,19.12
2018-02-22T03:19:53.292Z,19.85
2018-02-22T03:22:22.252Z,19.48
2018-02-22T03:24:49.760Z,19.85
2018-02-22T03:27:17.300Z,16.95
2018-02-22T03:29:45.564Z,19.98
2018-02-22T03:32:13.850Z,18.92
2018-02-22T03:34:42.149Z,18.35
2018-02-22T03:37:09.661Z,18.87
2018-02-22T03:39:37.173Z,17.58
2018-02-22T03:42:04.709Z,18.37
2018-02-22T03:44:32.980Z,18.12
2018-02-22T03:47:01.277Z,19.55
2018-02-22T03:49:28.800Z,18.35
2018-02-22T03:51:56.310Z,17.35
2018-02-22T03:54:23.848Z,19.65
2018-02-22T03:56:52.133Z,17.87
2018-02-22T03:59:19.659Z,18.95
2018-02-22T04:01:47.201Z,17.60
2018-02-22T04:04:14.714Z,18.73
2018-02-22T04:06:42.262Z,19.87
2018-02-22T04:09:10.557Z,18.33
2018-02-22T04:11:38.088Z,18.10
2018-02-22T04:14:05.588Z,18.50
2018-02-22T04:16:33.107Z,17.73
2018-02-22T04:19:00.659Z,16.80
2018-02-22T04:21:28.216Z,18.73
2018-02-22T04:23:55.759Z,17.83
2018-02-22T04:26:23.287Z,17.42
2018-02-22T04:28:50.796Z,18.40
2018-02-22T04:31:18.326Z,16.67
2018-02-22T04:33:45.819Z,19.20
2018-02-22T04:36:13.334Z,17.75
2018-02-22T04:38:40.856Z,16.10
2018-02-22T04:41:09.119Z,17.37
2018-02-22T04:43:36.636Z,17.95
2018-02-22T04:46:04.141Z,15.35
2018-02-22T04:48:32.425Z,16.75
2018-02-22T04:51:00.694Z,16.58
2018-02-22T04:53:29.014Z,15.30
2018-02-22T04:55:56.539Z,17.77
2018-02-22T04:58:24.824Z,17.20
2018-02-22T05:00:53.200Z,14.68
2018-02-22T05:03:21.471Z,18.00
2018-02-22T05:05:49.746Z,17.95
2018-02-22T05:08:18.037Z,15.45
2018-02-22T05:10:46.365Z,16.75
2018-02-22T05:13:13.903Z,17.55
2018-02-22T05:15:41.418Z,17.15
2018-02-22T05:18:09.692Z,14.30
2018-02-22T05:20:37.228Z,16.67
2018-02-22T05:23:04.741Z,17.70
2018-02-22T05:25:32.789Z,18.50
2018-02-22T05:28:01.080Z,17.20
2018-02-22T05:30:29.399Z,18.67
2018-02-22T05:32:56.925Z,15.10
2018-02-22T05:35:25.191Z,17.80
2018-02-22T05:37:53.493Z,16.83
2018-02-22T05:40:21.016Z,17.23
2018-02-22T05:42:48.525Z,18.33
2018-02-22T05:45:16.067Z,18.17
2018-02-22T05:47:43.585Z,20.05
2018-02-22T05:50:11.114Z,18.67
2018-02-22T05:52:39.473Z,20.10
2018-02-22T05:55:06.991Z,17.60
2018-02-22T05:57:34.552Z,17.30
2018-02-22T06:00:02.091Z,17.20
2018-02-22T06:02:29.640Z,17.15
2018-02-22T06:04:57.145Z,16.98
2018-02-22T06:07:24.681Z,15.07
2018-02-22T06:09:52.196Z,19.52
2018-02-22T06:12:19.721Z,19.58
2018-02-22T06:14:48.000Z,18.40
2018-02-22T06:17:16.284Z,18.55
2018-02-22T06:19:44.582Z,16.73
2018-02-22T06:22:12.117Z,18.58
2018-02-22T06:24:41.353Z,21.42
2018-02-22T06:27:09.193Z,19.65
2018-02-22T06:29:36.685Z,17.52
2018-02-22T06:32:04.210Z,17.92
2018-02-22T06:34:32.487Z,18.25
2018-02-22T06:37:00.024Z,17.15
2018-02-22T06:39:27.546Z,19.37
2018-02-22T06:41:55.067Z,20.00
2018-02-22T06:44:23.364Z,19.90
2018-02-22T06:46:50.884Z,18.23
2018-02-22T06:49:18.422Z,19.33
2018-02-22T06:51:45.965Z,14.93
2018-02-22T06:54:13.477Z,16.12
2018-02-22T06:56:41.773Z,18.65
2018-02-22T06:59:09.284Z,19.70
2018-02-22T07:01:36.819Z,19.25
2018-02-22T07:04:04.333Z,18.00
2018-02-22T07:06:32.633Z,18.23
2018-02-22T07:09:01.080Z,19.50
2018-02-22T07:11:28.753Z,18.15
2018-02-22T07:13:56.362Z,21.48
2018-02-22T07:16:23.862Z,15.98
2018-02-22T07:18:51.405Z,19.05
2018-02-22T07:21:18.921Z,16.85
2018-02-22T07:23:46.436Z,19.17
2018-02-22T07:26:14.230Z,20.77
2018-02-22T07:28:42.520Z,18.58
2018-02-22T07:31:10.075Z,19.00
2018-02-22T07:33:37.584Z,21.87
2018-02-22T07:36:05.127Z,20.17
2018-02-22T07:38:32.647Z,19.37
2018-02-22T07:41:00.916Z,18.73
2018-02-22T07:43:29.227Z,19.90
2018-02-22T07:45:56.740Z,19.37
2018-02-22T07:48:24.265Z,19.23
2018-02-22T07:50:51.792Z,19.27
2018-02-22T07:53:19.320Z,16.30
2018-02-22T07:55:46.844Z,20.33
2018-02-22T07:58:14.369Z,19.70
2018-02-22T08:00:41.896Z,19.23
2018-02-22T08:03:09.409Z,19.85
2018-02-22T08:05:36.961Z,17.25
2018-02-22T08:08:04.496Z,18.15
2018-02-22T08:10:32.775Z,18.00
2018-02-22T08:13:01.067Z,18.67
2018-02-22T08:15:28.618Z,20.25
2018-02-22T08:17:56.913Z,18.90
2018-02-22T08:20:25.393Z,18.58
2018-02-22T08:22:52.916Z,19.00
2018-02-22T08:25:21.249Z,18.73
2018-02-22T08:27:48.756Z,17.67
2018-02-22T08:30:17.058Z,18.90
2018-02-22T08:32:45.332Z,18.35
2018-02-22T08:35:13.605Z,18.98
2018-02-22T08:37:41.903Z,14.48
2018-02-22T08:40:09.411Z,19.45
2018-02-22T08:42:36.949Z,18.33
2018-02-22T08:45:04.454Z,18.90
2018-02-22T08:47:31.961Z,18.83
2018-02-22T08:49:59.494Z,17.87
2018-02-22T08:52:27.002Z,18.58
2018-02-22T08:54:54.525Z,18.98
2018-02-22T08:57:22.051Z,17.42
2018-02-22T08:59:50.350Z,17.58
2018-02-22T09:02:17.882Z,17.10
2018-02-22T09:04:45.397Z,13.88
2018-02-22T09:07:12.934Z,18.17
2018-02-22T09:09:40.437Z,17.80
2018-02-22T09:12:07.973Z,18.35
2018-02-22T09:14:35.505Z,17.95
2018-02-22T09:17:03.013Z,16.12
2018-02-22T09:19:30.656Z,18.35
2018-02-22T09:21:58.167Z,15.98
2018-02-22T09:24:26.449Z,14.82
2018-02-22T09:26:54.741Z,16.80
2018-02-22T09:29:22.247Z,17.45
2018-02-22T09:31:49.770Z,19.08
2018-02-22T09:34:17.282Z,17.87
2018-02-22T09:36:44.796Z,15.43
2018-02-22T09:39:12.332Z,12.18
2018-02-22T09:41:40.668Z,17.75
2018-02-22T09:44:08.204Z,17.67
2018-02-22T09:46:35.779Z,16.37
2018-02-22T09:49:03.250Z,16.25
2018-02-22T09:51:30.781Z,16.98
2018-02-22T09:53:58.296Z,12.23
2018-02-22T09:56:26.605Z,15.30
2018-02-22T09:58:54.125Z,15.98
2018-02-22T10:01:21.630Z,13.60
2018-02-22T10:03:49.148Z,16.00
2018-02-22T10:06:16.709Z,14.98
2018-02-22T10:08:44.227Z,15.95
2018-02-22T10:11:11.743Z,14.18
2018-02-22T10:13:40.017Z,12.77
2018-02-22T10:16:08.300Z,12.20
2018-02-22T10:18:36.577Z,13.38
2018-02-22T10:21:04.869Z,14.30
2018-02-22T10:23:32.376Z,14.15
2018-02-22T10:25:59.872Z,15.63
2018-02-22T10:28:28.158Z,14.10
2018-02-22T10:30:55.665Z,11.63
2018-02-22T10:33:23.197Z,13.40
2018-02-22T10:35:50.721Z,13.10
2018-02-22T10:38:20.933Z,13.90
2018-02-22T10:40:48.492Z,12.70
2018-02-22T10:43:16.000Z,13.15
2018-02-22T10:45:43.544Z,11.98
2018-02-22T10:48:11.068Z,15.18
2018-02-22T10:50:38.585Z,12.82
2018-02-22T10:53:06.114Z,14.10
2018-02-22T10:55:33.632Z,13.62
2018-02-22T10:58:01.165Z,13.80
2018-02-22T11:00:34.397Z,15.30
2018-02-22T11:03:01.938Z,14.70
2018-02-22T11:05:29.439Z,13.65
2018-02-22T11:07:57.715Z,15.85
2018-02-22T11:10:26.012Z,16.37
2018-02-22T11:12:53.532Z,15.30
2018-02-22T11:15:21.067Z,15.63
2018-02-22T11:17:48.576Z,13.55
2018-02-22T11:20:16.852Z,14.48
2018-02-22T11:22:45.306Z,13.98
2018-02-22T11:25:12.812Z,14.73
2018-02-22T11:27:40.345Z,14.48
2018-02-22T11:30:08.634Z,15.63
2018-02-22T11:32:36.197Z,14.32
2018-02-22T11:35:03.742Z,16.40
2018-02-22T11:37:31.283Z,15.50
2018-02-22T11:39:58.805Z,15.60
2018-02-22T11:42:26.305Z,12.68
2018-02-22T11:44:53.812Z,15.77
2018-02-22T11:47:21.346Z,16.25
2018-02-22T11:49:49.632Z,16.70
2018-02-22T11:52:17.182Z,13.75
2018-02-22T11:54:45.458Z,15.65
2018-02-22T11:57:13.737Z,14.25
2018-02-22T11:59:42.033Z,15.27
2018-02-22T12:02:09.538Z,14.38
2018-02-22T12:04:37.078Z,15.35
2018-02-22T12:07:04.609Z,14.65
2018-02-22T12:09:32.132Z,16.45
2018-02-22T12:11:59.664Z,15.10
2018-02-22T12:14:27.172Z,16.12
2018-02-22T12:16:55.477Z,14.38
2018-02-22T12:19:23.035Z,16.08
2018-02-22T12:21:51.285Z,13.98
2018-02-22T12:24:19.574Z,15.02
2018-02-22T12:26:47.857Z,13.50
2018-02-22T12:29:15.389Z,15.00
2018-02-22T12:31:42.901Z,14.23
2018-02-22T12:34:10.428Z,14.35
2018-02-22T12:36:38.696Z,14.63
2018-02-22T12:39:06.998Z,13.82
2018-02-22T12:41:34.559Z,13.43
2018-02-22T12:44:02.179Z,14.32
2018-02-22T12:46:29.671Z,13.38
2018-02-22T12:48:58.101Z,11.20
2018-02-22T12:51:25.632Z,13.07
2018-02-22T12:53:53.136Z,11.82
2018-02-22T12:56:20.706Z,13.40
2018-02-22T12:58:48.168Z,14.70
2018-02-22T13:01:15.672Z,12.85
2018-02-22T13:03:43.245Z,12.05
2018-02-22T13:06:10.765Z,13.55
2018-02-22T13:08:39.056Z,12.45
2018-02-22T13:11:06.572Z,10.88
2018-02-22T13:13:34.089Z,13.10
2018-02-22T13:16:01.612Z,11.65
2018-02-22T13:18:29.895Z,12.77
2018-02-22T13:20:58.198Z,12.90
2018-02-22T13:23:25.706Z,12.32
2018-02-22T13:25:53.218Z,11.75
2018-02-22T13:28:20.749Z,11.07
2018-02-22T13:30:49.038Z,10.73
2018-02-22T13:33:29.235Z,12.13
2018-02-22T13:35:56.762Z,12.23
2018-02-22T13:38:36.059Z,10.52
2018-02-22T13:41:03.581Z,11.90
2018-02-22T13:43:31.087Z,10.48
2018-02-22T13:45:58.621Z,14.13
2018-02-22T13:48:37.972Z,11.70
2018-02-22T13:51:07.305Z,12.27
2018-02-22T13:53:35.602Z,10.70
2018-02-22T13:56:03.136Z,11.48
2018-02-22T13:58:31.156Z,12.45
2018-02-22T14:01:10.645Z,11.63
2018-02-22T14:03:38.922Z,12.30
2018-02-22T14:06:06.476Z,11.52
2018-02-22T14:08:45.718Z,11.60
2018-02-22T14:11:14.026Z,11.00
2018-02-22T14:13:41.598Z,9.82
2018-02-22T14:16:09.122Z,10.07
2018-02-22T14:18:37.461Z,12.10
2018-02-22T14:21:04.973Z,11.60
2018-02-22T14:23:32.500Z,10.80
2018-02-22T14:26:00.021Z,7.97
2018-02-22T14:28:27.541Z,10.43
2018-02-22T14:30:55.070Z,11.18
2018-02-22T14:33:22.694Z,11.15
2018-02-22T14:35:50.305Z,11.70
2018-02-22T14:38:18.592Z,10.55
2018-02-22T14:40:46.880Z,9.98
2018-02-22T14:43:14.422Z,12.55
2018-02-22T14:45:42.949Z,11.95
2018-02-22T14:48:10.473Z,9.60
2018-02-22T14:50:38.764Z,11.38
2018-02-22T14:53:07.053Z,11.25
2018-02-22T14:55:34.605Z,10.38
2018-02-22T14:58:02.133Z,9.45
2018-02-22T15:00:29.694Z,10.45
2018-02-22T15:02:57.254Z,11.15
2018-02-22T15:05:24.773Z,11.43
2018-02-22T15:07:52.317Z,11.98
2018-02-22T15:10:19.828Z,10.43
2018-02-22T15:12:47.361Z,11.25
2018-02-22T15:15:15.625Z,11.40
2018-02-22T15:17:43.140Z,11.57
2018-02-22T15:20:10.662Z,11.80
2018-02-22T15:22:38.172Z,10.43
2018-02-22T15:25:05.704Z,11.82
2018-02-22T15:27:33.217Z,13.10
2018-02-22T15:30:02.317Z,10.90
2018-02-22T15:32:29.876Z,10.43
2018-02-22T15:34:57.382Z,10.15
2018-02-22T15:37:24.913Z,10.10
2018-02-22T15:39:52.424Z,11.77
2018-02-22T15:42:20.733Z,10.13
2018-02-22T15:44:48.316Z,10.65
2018-02-22T15:47:15.844Z,9.93
2018-02-22T15:49:43.396Z,10.70
2018-02-22T15:52:10.924Z,10.77
2018-02-22T15:54:38.984Z,10.20
2018-02-22T15:57:06.508Z,9.95
2018-02-22T15:59:34.045Z,10.30
2018-02-22T16:02:01.621Z,10.45
2018-02-22T16:04:29.129Z,9.15
2018-02-22T16:06:56.638Z,10.93
2018-02-22T16:09:24.167Z,10.25
2018-02-22T16:11:52.481Z,10.27
2018-02-22T16:14:20.013Z,10.10
2018-02-22T16:16:48.309Z,10.52
2018-02-22T16:19:16.745Z,7.47
2018-02-22T16:21:44.274Z,9.38
2018-02-22T16:24:11.798Z,9.20
2018-02-22T16:26:39.340Z,9.80
2018-02-22T16:29:06.862Z,10.45
2018-02-22T16:31:34.376Z,9.73
2018-02-22T16:34:02.675Z,10.75
2018-02-22T16:36:30.180Z,9.02
2018-02-22T16:39:00.939Z,9.15
2018-02-22T16:41:29.247Z,8.85
2018-02-22T16:43:56.842Z,8.88
2018-02-22T16:46:24.373Z,9.20
2018-02-22T16:48:53.863Z,9.13
2018-02-22T16:51:21.365Z,10.02
2018-02-22T16:53:48.872Z,10.00
2018-02-22T16:56:17.156Z,8.27
2018-02-22T16:58:44.716Z,9.40
2018-02-22T17:01:12.236Z,9.63
2018-02-22T17:03:39.764Z,9.95
2018-02-22T17:06:07.271Z,9.15
2018-02-22T17:08:34.788Z,9.18
2018-02-22T17:11:02.309Z,11.02
2018-02-22T17:13:30.582Z,10.18
2018-02-22T17:15:58.114Z,8.60
2018-02-22T17:18:25.647Z,9.70
2018-02-22T17:20:53.164Z,10.15
2018-02-22T17:23:20.705Z,9.70
2018-02-22T17:25:53.946Z,9.77
2018-02-22T17:28:27.165Z,8.80
2018-02-22T17:31:00.386Z,10.80
2018-02-22T17:33:27.908Z,8.15
2018-02-22T17:35:56.323Z,9.18
2018-02-22T17:38:28.492Z,9.57
2018-02-22T17:41:00.937Z,9.57
2018-02-22T17:43:28.467Z,9.07
2018-02-22T17:45:56.026Z,10.32
2018-02-22T17:48:23.542Z,9.35
2018-02-22T17:50:51.072Z,9.00
2018-02-22T17:53:18.585Z,8.80
2018-02-22T17:55:46.890Z,8.98
2018-02-22T17:58:14.421Z,9.23
2018-02-22T18:00:42.697Z,10.05
2018-02-22T18:03:10.981Z,8.80
2018-02-22T18:05:39.252Z,10.13
2018-02-22T18:08:07.565Z,10.10
2018-02-22T18:10:35.080Z,9.63
2018-02-22T18:13:02.629Z,10.40
2018-02-22T18:15:30.146Z,8.32
2018-02-22T18:17:57.669Z,10.02
2018-02-22T18:20:25.228Z,9.63
2018-02-22T18:22:52.904Z,8.65
2018-02-22T18:25:20.445Z,8.45
2018-02-22T18:27:48.015Z,9.70
2018-02-22T18:30:15.539Z,8.85
2018-02-22T18:32:43.058Z,9.50
2018-02-22T18:35:10.561Z,8.32
2018-02-22T18:37:43.792Z,9.45
2018-02-22T18:40:17.832Z,9.90
2018-02-22T18:42:50.361Z,10.25
2018-02-22T18:45:17.871Z,9.10
2018-02-22T18:47:45.400Z,10.35
2018-02-22T18:50:13.744Z,9.35
2018-02-22T18:52:41.309Z,9.65
2018-02-22T18:55:08.858Z,7.80
2018-02-22T18:57:36.359Z,9.38
2018-02-22T19:00:04.683Z,9.68
2018-02-22T19:02:32.294Z,8.13
2018-02-22T19:04:59.840Z,9.38
2018-02-22T19:07:27.369Z,8.05
2018-02-22T19:09:54.882Z,10.63
2018-02-22T19:12:23.229Z,8.30
2018-02-22T19:14:50.748Z,8.20
2018-02-22T19:17:18.255Z,8.70
2018-02-22T19:19:45.784Z,7.82
2018-02-22T19:22:13.296Z,8.70
2018-02-22T19:24:41.577Z,9.43
2018-02-22T19:27:09.122Z,6.55
2018-02-22T19:29:37.387Z,8.52
2018-02-22T19:32:04.923Z,8.98
2018-02-22T19:34:32.460Z,7.85
2018-02-22T19:36:59.962Z,6.95
2018-02-22T19:39:27.506Z,7.80
2018-02-22T19:41:55.024Z,7.22
2018-02-22T19:44:22.619Z,7.55
2018-02-22T19:46:50.847Z,7.28
2018-02-22T19:49:19.115Z,8.68
2018-02-22T19:51:47.412Z,7.90
2018-02-22T19:54:14.928Z,6.90
2018-02-22T19:56:42.457Z,8.75
2018-02-22T19:59:09.981Z,7.65
2018-02-22T20:01:38.264Z,7.65
2018-02-22T20:04:06.566Z,8.23
2018-02-22T20:06:34.078Z,8.25
2018-02-22T20:09:01.619Z,8.38
2018-02-22T20:11:29.159Z,7.20
2018-02-22T20:13:56.675Z,8.32
2018-02-22T20:16:25.147Z,6.93
2018-02-22T20:18:53.425Z,7.65
2018-02-22T20:21:21.722Z,8.70
2018-02-22T20:23:49.241Z,7.75
2018-02-22T20:26:16.755Z,7.05
2018-02-22T20:28:45.266Z,6.65
2018-02-22T20:31:12.778Z,8.13
2018-02-22T20:33:40.317Z,7.10
2018-02-22T20:36:08.609Z,7.78
2018-02-22T20:38:36.180Z,8.00
2018-02-22T20:41:03.700Z,6.93
2018-02-22T20:43:31.227Z,8.70
2018-02-22T20:45:58.825Z,8.15
2018-02-22T20:48:26.344Z,7.25
2018-02-22T20:50:53.876Z,7.10
2018-02-22T20:53:22.633Z,8.65
2018-02-22T20:55:50.145Z,8.10
2018-02-22T20:58:17.673Z,7.85
2018-02-22T21:00:45.950Z,7.65
2018-02-22T21:03:15.219Z,5.97
2018-02-22T21:05:42.728Z,6.57
2018-02-22T21:08:10.258Z,9.68
2018-02-22T21:10:37.801Z,7.90
2018-02-22T21:13:05.314Z,8.90
2018-02-22T21:15:32.839Z,7.87
2018-02-22T21:18:00.352Z,9.35
2018-02-22T21:20:27.890Z,8.25
2018-02-22T21:22:55.405Z,8.82
2018-02-22T21:25:22.933Z,8.27
2018-02-22T21:27:50.467Z,7.28
2018-02-22T21:30:17.996Z,8.32
2018-02-22T21:32:45.540Z,9.18
2018-02-22T21:35:13.058Z,8.05
2018-02-22T21:37:40.590Z,7.60
2018-02-22T21:40:10.642Z,6.15
2018-02-22T21:42:38.157Z,7.97
2018-02-22T21:45:05.688Z,8.30
2018-02-22T21:47:33.199Z,9.02
2018-02-22T21:50:01.504Z,7.70
2018-02-22T21:52:29.029Z,8.27
2018-02-22T21:54:57.325Z,9.05
2018-02-22T21:57:24.848Z,7.60
2018-02-22T21:59:53.064Z,8.02
2018-02-22T22:02:20.645Z,8.30
2018-02-22T22:04:48.160Z,6.78
2018-02-22T22:07:16.453Z,6.20
2018-02-22T22:09:43.973Z,8.88
2018-02-22T22:12:11.483Z,8.60
2018-02-22T22:14:39.024Z,7.53
2018-02-22T22:17:07.296Z,8.82
2018-02-22T22:19:35.583Z,7.93
2018-02-22T22:22:03.092Z,7.78
2018-02-22T22:24:30.608Z,7.53
2018-02-22T22:26:58.914Z,7.32
2018-02-22T22:29:26.420Z,7.65
2018-02-22T22:31:54.724Z,8.45
2018-02-22T22:34:22.241Z,8.73
2018-02-22T22:36:49.752Z,7.85
2018-02-22T22:39:17.293Z,7.37
2018-02-22T22:41:45.565Z,7.50
2018-02-22T22:44:13.871Z,7.22
2018-02-22T22:46:41.393Z,7.65
2018-02-22T22:49:09.697Z,7.70
2018-02-22T22:51:37.215Z,6.15
2018-02-22T22:54:04.747Z,8.90
2018-02-22T22:56:32.287Z,8.43
2018-02-22T22:58:59.792Z,8.98
2018-02-22T23:01:27.314Z,6.75
2018-02-22T23:03:54.820Z,6.43
2018-02-22T23:06:22.357Z,7.65
2018-02-22T23:08:49.870Z,8.70
2018-02-22T23:11:17.408Z,7.32
2018-02-22T23:13:44.937Z,8.43
2018-02-22T23:16:12.466Z,8.10
2018-02-22T23:18:40.014Z,6.30
2018-02-22T23:21:07.548Z,8.35
2018-02-22T23:23:35.857Z,7.12
2018-02-22T23:26:03.392Z,7.07
2018-02-22T23:28:31.679Z,8.02
2018-02-22T23:30:59.977Z,7.87
2018-02-22T23:33:27.489Z,6.75
2018-02-22T23:35:55.096Z,6.93
2018-02-22T23:38:23.352Z,7.80
2018-02-22T23:40:54.272Z,7.72
2018-02-22T23:43:21.810Z,7.28
2018-02-22T23:45:49.344Z,7.57
2018-02-22T23:48:16.900Z,6.80
2018-02-22T23:50:44.417Z,7.18
2018-02-22T23:53:11.940Z,6.80
2018-02-22T23:55:39.464Z,7.10
2018-02-22T23:58:06.995Z,7.30
